createdAt,value
2023-05-22T00:00:19.376Z,100799.91
2023-05-22T00:02:47.219Z,100801.78
2023-05-22T00:05:18.266Z,100808.19
2023-05-22T00:07:46.464Z,100796.56
2023-05-22T00:10:14.124Z,100790.72
2023-05-22T00:12:41.852Z,100791.72
2023-05-22T00:15:11.362Z,100786.34
2023-05-22T00:17:40.545Z,100785.50
2023-05-22T00:20:10.988Z,100783.97
2023-05-22T00:22:38.853Z,100775.06
2023-05-22T00:25:08.369Z,100782.31
2023-05-22T00:27:36.005Z,100784.16
2023-05-22T00:30:05.372Z,100782.69
2023-05-22T00:32:33.024Z,100771.25
2023-05-22T00:35:01.982Z,100777.66
2023-05-22T00:37:29.801Z,100769.78
2023-05-22T00:39:57.925Z,100771.63
2023-05-22T00:42:25.780Z,100769.97
2023-05-22T00:44:53.456Z,100763.91
2023-05-22T00:47:21.196Z,100766.97
2023-05-22T00:49:48.862Z,100782.94
2023-05-22T00:52:18.117Z,100767.13
2023-05-22T00:54:46.541Z,100763.78
2023-05-22T00:57:14.383Z,100761.94
2023-05-22T00:59:42.112Z,100765.84
2023-05-22T01:02:10.011Z,100766.00
2023-05-22T01:04:37.839Z,100753.56
2023-05-22T01:07:06.246Z,100757.47
2023-05-22T01:09:35.264Z,100756.78
2023-05-22T01:12:15.570Z,100760.50
2023-05-22T01:14:49.582Z,100752.63
2023-05-22T01:17:25.037Z,100754.66
2023-05-22T01:20:07.462Z,100762.06
2023-05-22T01:23:13.884Z,100764.94
2023-05-22T01:26:11.371Z,100765.31
2023-05-22T01:28:50.728Z,100759.44
2023-05-22T01:31:25.569Z,100761.66
2023-05-22T01:33:56.939Z,100767.22
2023-05-22T01:36:30.932Z,100765.53
2023-05-22T01:39:01.490Z,100761.19
2023-05-22T01:41:30.315Z,100760.50
2023-05-22T01:43:58.279Z,100764.59
2023-05-22T01:46:29.154Z,100760.56
2023-05-22T01:48:57.293Z,100765.31
2023-05-22T01:51:32.747Z,100771.69
2023-05-22T01:54:09.198Z,100782.78
2023-05-22T01:56:45.608Z,100781.97
2023-05-22T01:59:22.143Z,100777.09
2023-05-22T02:01:53.008Z,100774.94
2023-05-22T02:04:23.598Z,100782.34
2023-05-22T02:06:54.343Z,100776.47
2023-05-22T02:09:24.568Z,100770.66
2023-05-22T02:11:52.549Z,100765.59
2023-05-22T02:14:22.214Z,100770.34
2023-05-22T02:16:51.255Z,100770.66
2023-05-22T02:19:19.306Z,100770.84
2023-05-22T02:21:47.695Z,100764.81
2023-05-22T02:24:15.551Z,100767.50
2023-05-22T02:26:44.070Z,100762.13
2023-05-22T02:29:12.856Z,100759.44
2023-05-22T02:31:40.882Z,100752.41
2023-05-22T02:34:09.991Z,100741.81
2023-05-22T02:36:37.994Z,100747.38
2023-05-22T02:39:06.093Z,100737.63
2023-05-22T02:41:34.092Z,100732.09
2023-05-22T02:44:01.836Z,100731.25
2023-05-22T02:46:30.331Z,100716.97
2023-05-22T02:48:58.009Z,100723.19
2023-05-22T02:51:27.151Z,100720.19
2023-05-22T02:53:54.791Z,100711.94
2023-05-22T02:56:23.956Z,100710.91
2023-05-22T02:58:51.596Z,100712.75
2023-05-22T03:01:19.236Z,100703.69
2023-05-22T03:03:48.290Z,100705.34
2023-05-22T03:06:16.309Z,100706.19
2023-05-22T03:08:45.324Z,100695.44
2023-05-22T03:11:12.937Z,100699.00
2023-05-22T03:13:41.333Z,100706.19
2023-05-22T03:16:09.032Z,100714.25
2023-05-22T03:18:41.151Z,100721.47
2023-05-22T03:21:08.754Z,100724.34
2023-05-22T03:23:36.358Z,100733.91
2023-05-22T03:26:05.629Z,100740.97
2023-05-22T03:28:36.877Z,100734.06
2023-05-22T03:31:04.754Z,100741.28
2023-05-22T03:33:40.821Z,100735.28
2023-05-22T03:36:09.819Z,100731.06
2023-05-22T03:38:37.821Z,100732.25
2023-05-22T03:41:07.769Z,100729.94
2023-05-22T03:43:35.694Z,100735.44
2023-05-22T03:46:03.420Z,100736.66
2023-05-22T03:48:31.230Z,100725.41
2023-05-22T03:50:58.957Z,100730.97
2023-05-22T03:53:26.565Z,100738.53
2023-05-22T03:55:54.338Z,100738.53
2023-05-22T03:58:25.449Z,100728.16
2023-05-22T04:00:53.881Z,100737.22
2023-05-22T04:03:21.590Z,100734.69
2023-05-22T04:05:49.445Z,100728.66
2023-05-22T04:08:17.158Z,100725.31
2023-05-22T04:10:46.316Z,100727.31
2023-05-22T04:13:14.869Z,100718.63
2023-05-22T04:15:45.901Z,100719.00
2023-05-22T04:18:14.294Z,100716.44
2023-05-22T04:20:43.043Z,100716.44
2023-05-22T04:23:10.888Z,100716.63
2023-05-22T04:25:38.725Z,100718.50
2023-05-22T04:28:06.405Z,100717.84
2023-05-22T04:30:34.306Z,100724.19
2023-05-22T04:33:05.260Z,100717.34
2023-05-22T04:35:34.158Z,100721.88
2023-05-22T04:38:02.025Z,100716.00
2023-05-22T04:40:30.205Z,100711.66
2023-05-22T04:42:59.693Z,100714.69
2023-05-22T04:45:28.664Z,100709.47
2023-05-22T04:47:59.583Z,100712.16
2023-05-22T04:50:30.227Z,100713.19
2023-05-22T04:52:59.578Z,100712.34
2023-05-22T04:55:27.440Z,100710.66
2023-05-22T04:57:56.267Z,100707.16
2023-05-22T05:00:26.495Z,100707.16
2023-05-22T05:02:54.504Z,100700.94
2023-05-22T05:05:22.430Z,100697.44
2023-05-22T05:07:51.820Z,100700.13
2023-05-22T05:10:20.385Z,100693.03
2023-05-22T05:12:48.041Z,100693.03
2023-05-22T05:15:15.674Z,100694.75
2023-05-22T05:17:43.478Z,100695.72
2023-05-22T05:20:14.349Z,100692.91
2023-05-22T05:22:43.941Z,100685.69
2023-05-22T05:25:14.370Z,100696.22
2023-05-22T05:27:42.076Z,100694.19
2023-05-22T05:30:10.754Z,100692.03
2023-05-22T05:32:58.747Z,100694.53
2023-05-22T05:35:37.064Z,100699.38
2023-05-22T05:38:09.409Z,100702.72
2023-05-22T05:40:41.879Z,100700.53
2023-05-22T05:43:10.585Z,100707.88
2023-05-22T05:45:39.367Z,100704.69
2023-05-22T05:48:08.023Z,100706.84
2023-05-22T05:50:39.200Z,100711.66
2023-05-22T05:53:07.284Z,100714.66
2023-05-22T05:55:35.940Z,100729.25
2023-05-22T05:58:06.214Z,100726.03
2023-05-22T06:00:48.769Z,100724.53
2023-05-22T06:03:17.723Z,100721.13
2023-05-22T06:05:52.773Z,100724.78
2023-05-22T06:08:43.221Z,100723.72
2023-05-22T06:11:11.105Z,100723.84
2023-05-22T06:13:50.738Z,100723.97
2023-05-22T06:16:18.443Z,100725.94
2023-05-22T06:18:46.591Z,100727.91
2023-05-22T06:21:14.219Z,100727.19
2023-05-22T06:23:42.571Z,100725.63
2023-05-22T06:26:10.289Z,100725.09
2023-05-22T06:28:40.494Z,100728.72
2023-05-22T06:31:09.831Z,100732.53
2023-05-22T06:33:40.583Z,100729.75
2023-05-22T06:36:09.215Z,100731.91
2023-05-22T06:38:37.838Z,100736.56
2023-05-22T06:41:06.338Z,100736.06
2023-05-22T06:43:34.033Z,100729.09
2023-05-22T06:46:14.673Z,100732.91
2023-05-22T06:48:51.052Z,100736.72
2023-05-22T06:51:25.481Z,100730.78
2023-05-22T06:53:58.918Z,100736.28
2023-05-22T06:56:31.839Z,100733.00
2023-05-22T06:59:11.616Z,100733.78
2023-05-22T07:02:03.442Z,100727.44
2023-05-22T07:04:47.876Z,100734.56
2023-05-22T07:07:20.673Z,100731.13
2023-05-22T07:09:48.661Z,100734.78
2023-05-22T07:12:16.892Z,100730.31
2023-05-22T07:14:45.812Z,100730.38
2023-05-22T07:17:15.872Z,100734.81
2023-05-22T07:19:46.073Z,100733.06
2023-05-22T07:22:14.542Z,100739.38
2023-05-22T07:24:43.465Z,100736.75
2023-05-22T07:27:12.307Z,100744.53
2023-05-22T07:29:41.016Z,100742.34
2023-05-22T07:32:09.930Z,100736.81
2023-05-22T07:34:39.457Z,100747.72
2023-05-22T07:37:10.641Z,100745.06
2023-05-22T07:39:38.984Z,100737.25
2023-05-22T07:42:08.406Z,100743.06
2023-05-22T07:44:42.321Z,100744.16
2023-05-22T07:47:10.062Z,100750.84
2023-05-22T07:49:39.163Z,100750.25
2023-05-22T07:52:07.891Z,100743.63
2023-05-22T07:54:35.857Z,100749.50
2023-05-22T07:57:03.737Z,100748.28
2023-05-22T07:59:38.317Z,100750.19
2023-05-22T08:02:06.121Z,100747.75
2023-05-22T08:04:33.831Z,100752.16
2023-05-22T08:07:03.257Z,100751.81
2023-05-22T08:09:30.884Z,100759.56
2023-05-22T08:11:58.698Z,100763.78
2023-05-22T08:14:26.301Z,100752.41
2023-05-22T08:16:53.993Z,100754.69
2023-05-22T08:19:22.223Z,100754.31
2023-05-22T08:21:49.932Z,100758.50
2023-05-22T08:24:18.882Z,100755.00
2023-05-22T08:26:46.493Z,100758.38
2023-05-22T08:29:14.085Z,100763.03
2023-05-22T08:31:42.205Z,100766.59
2023-05-22T08:34:10.541Z,100763.91
2023-05-22T08:36:38.148Z,100764.75
2023-05-22T08:39:07.369Z,100757.94
2023-05-22T08:41:36.519Z,100755.03
2023-05-22T08:44:04.227Z,100761.31
2023-05-22T08:46:37.825Z,100758.22
2023-05-22T08:49:06.617Z,100752.41
2023-05-22T08:51:35.724Z,100760.97
2023-05-22T08:54:07.383Z,100757.00
2023-05-22T08:56:39.832Z,100761.00
2023-05-22T08:59:13.809Z,100756.44
2023-05-22T09:01:41.551Z,100766.22
2023-05-22T09:04:09.347Z,100760.81
2023-05-22T09:06:38.512Z,100746.88
2023-05-22T09:09:06.157Z,100755.63
2023-05-22T09:11:33.805Z,100751.03
2023-05-22T09:14:12.345Z,100754.78
2023-05-22T09:16:47.403Z,100754.38
2023-05-22T09:19:15.788Z,100756.88
2023-05-22T09:21:45.670Z,100751.06
2023-05-22T09:24:13.303Z,100750.84
2023-05-22T09:26:41.124Z,100751.25
2023-05-22T09:29:09.182Z,100746.88
2023-05-22T09:31:42.105Z,100740.81
2023-05-22T09:34:14.072Z,100748.72
2023-05-22T09:36:42.355Z,100734.34
2023-05-22T09:39:10.811Z,100737.69
2023-05-22T09:41:40.293Z,100738.09
2023-05-22T09:44:14.770Z,100732.25
2023-05-22T09:46:46.083Z,100738.91
2023-05-22T09:49:16.451Z,100731.22
2023-05-22T09:51:48.600Z,100735.78
2023-05-22T09:54:17.422Z,100743.88
2023-05-22T09:56:48.684Z,100743.63
2023-05-22T09:59:21.692Z,100736.75
2023-05-22T10:01:51.523Z,100740.50
2023-05-22T10:04:19.736Z,100738.59
2023-05-22T10:06:52.126Z,100738.34
2023-05-22T10:09:22.749Z,100747.09
2023-05-22T10:11:54.385Z,100747.66
2023-05-22T10:14:23.378Z,100740.34
2023-05-22T10:16:52.500Z,100746.78
2023-05-22T10:19:20.282Z,100743.41
2023-05-22T10:21:49.545Z,100743.81
2023-05-22T10:24:17.577Z,100742.56
2023-05-22T10:26:45.321Z,100746.69
2023-05-22T10:29:17.764Z,100740.63
2023-05-22T10:31:57.024Z,100736.59
2023-05-22T10:34:40.534Z,100745.28
2023-05-22T10:37:22.537Z,100733.56
2023-05-22T10:40:01.845Z,100735.22
2023-05-22T10:42:31.457Z,100732.06
2023-05-22T10:45:02.023Z,100720.94
2023-05-22T10:47:34.046Z,100722.75
2023-05-22T10:50:07.987Z,100715.66
2023-05-22T10:52:35.740Z,100723.38
2023-05-22T10:55:07.388Z,100719.44
2023-05-22T10:57:35.478Z,100717.78
2023-05-22T11:00:11.680Z,100717.78
2023-05-22T11:02:43.008Z,100730.47
2023-05-22T11:05:35.417Z,100716.44
2023-05-22T11:08:37.338Z,100725.53
2023-05-22T11:11:13.094Z,100733.88
2023-05-22T11:13:41.179Z,100721.28
2023-05-22T11:16:11.172Z,100722.03
2023-05-22T11:18:40.298Z,100721.75
2023-05-22T11:21:11.141Z,100718.75
2023-05-22T11:23:39.565Z,100713.03
2023-05-22T11:26:26.361Z,100713.09
2023-05-22T11:28:56.281Z,100716.34
2023-05-22T11:31:24.315Z,100704.81
2023-05-22T11:33:54.670Z,100707.44
2023-05-22T11:36:23.345Z,100700.50
2023-05-22T11:38:51.529Z,100705.59
2023-05-22T11:41:19.181Z,100699.41
2023-05-22T11:43:46.815Z,100697.88
2023-05-22T11:46:15.161Z,100691.03
2023-05-22T11:48:43.327Z,100694.50
2023-05-22T11:51:12.292Z,100696.13
2023-05-22T11:53:40.014Z,100699.09
2023-05-22T11:56:07.951Z,100697.69
2023-05-22T11:58:35.594Z,100690.81
2023-05-22T12:01:04.149Z,100687.03
2023-05-22T12:03:33.458Z,100684.78
2023-05-22T12:06:02.923Z,100681.13
2023-05-22T12:08:32.057Z,100693.81
2023-05-22T12:11:00.055Z,100687.44
2023-05-22T12:13:29.989Z,100681.16
2023-05-22T12:16:00.652Z,100687.97
2023-05-22T12:18:28.459Z,100687.19
2023-05-22T12:20:56.634Z,100682.22
2023-05-22T12:23:25.474Z,100685.28
2023-05-22T12:26:01.859Z,100685.59
2023-05-22T12:28:29.570Z,100685.47
2023-05-22T12:30:57.217Z,100688.09
2023-05-22T12:33:28.655Z,100685.84
2023-05-22T12:35:58.384Z,100683.13
2023-05-22T12:38:28.485Z,100688.47
2023-05-22T12:40:56.696Z,100682.91
2023-05-22T12:43:27.074Z,100678.28
2023-05-22T12:45:55.649Z,100678.41
2023-05-22T12:48:23.864Z,100686.59
2023-05-22T12:50:51.511Z,100687.78
2023-05-22T12:53:19.523Z,100684.94
2023-05-22T12:55:47.123Z,100687.09
2023-05-22T12:58:14.741Z,100679.00
2023-05-22T13:00:43.700Z,100688.38
2023-05-22T13:03:12.005Z,100681.44
2023-05-22T13:05:40.063Z,100685.94
2023-05-22T13:08:08.127Z,100696.00
2023-05-22T13:10:36.323Z,100683.75
2023-05-22T13:13:03.953Z,100678.44
2023-05-22T13:15:32.468Z,100682.47
2023-05-22T13:18:01.561Z,100681.50
2023-05-22T13:20:29.190Z,100692.59
2023-05-22T13:22:57.760Z,100687.25
2023-05-22T13:25:25.401Z,100684.38
2023-05-22T13:27:53.045Z,100687.00
2023-05-22T13:30:20.918Z,100680.00
2023-05-22T13:32:48.654Z,100676.78
2023-05-22T13:35:17.695Z,100686.28
2023-05-22T13:37:45.590Z,100680.34
2023-05-22T13:40:13.702Z,100681.22
2023-05-22T13:42:41.427Z,100675.66
2023-05-22T13:45:10.930Z,100670.09
2023-05-22T13:47:38.628Z,100668.31
2023-05-22T13:50:07.424Z,100667.97
2023-05-22T13:52:37.554Z,100654.13
2023-05-22T13:55:05.718Z,100656.84
2023-05-22T13:57:33.323Z,100648.31
2023-05-22T14:00:01.070Z,100649.63
2023-05-22T14:02:28.876Z,100652.00
2023-05-22T14:04:56.572Z,100640.94
2023-05-22T14:07:24.791Z,100643.41
2023-05-22T14:09:53.785Z,100646.44
2023-05-22T14:12:21.387Z,100642.31
2023-05-22T14:14:49.032Z,100639.31
2023-05-22T14:17:16.737Z,100644.13
2023-05-22T14:19:44.341Z,100643.59
2023-05-22T14:22:12.689Z,100637.63
2023-05-22T14:24:40.423Z,100636.59
2023-05-22T14:27:09.980Z,100629.38
2023-05-22T14:29:37.667Z,100626.09
2023-05-22T14:32:05.769Z,100621.06
2023-05-22T14:34:33.522Z,100612.66
2023-05-22T14:37:02.307Z,100606.09
2023-05-22T14:39:29.992Z,100612.75
2023-05-22T14:41:57.674Z,100615.91
2023-05-22T14:44:26.657Z,100609.88
2023-05-22T14:46:54.638Z,100615.66
2023-05-22T14:49:22.284Z,100604.09
2023-05-22T14:51:49.959Z,100607.56
2023-05-22T14:54:19.080Z,100605.84
2023-05-22T14:56:47.120Z,100606.75
2023-05-22T14:59:14.945Z,100611.59
2023-05-22T15:01:44.424Z,100604.66
2023-05-22T15:04:12.160Z,100597.91
2023-05-22T15:06:40.106Z,100604.31
2023-05-22T15:09:08.517Z,100601.56
2023-05-22T15:11:36.333Z,100595.00
2023-05-22T15:14:04.090Z,100597.69
2023-05-22T15:16:31.700Z,100598.69
2023-05-22T15:19:00.729Z,100596.66
2023-05-22T15:21:28.498Z,100601.91
2023-05-22T15:23:56.195Z,100603.91
2023-05-22T15:26:23.804Z,100608.03
2023-05-22T15:28:51.430Z,100616.63
2023-05-22T15:31:19.723Z,100604.69
2023-05-22T15:33:47.409Z,100604.25
2023-05-22T15:36:16.458Z,100604.28
2023-05-22T15:38:44.088Z,100606.81
2023-05-22T15:41:11.982Z,100607.41
2023-05-22T15:43:39.581Z,100601.94
2023-05-22T15:46:08.401Z,100600.72
2023-05-22T15:48:36.232Z,100602.59
2023-05-22T15:51:03.848Z,100603.03
2023-05-22T15:53:32.780Z,100605.94
2023-05-22T15:56:00.377Z,100610.47
2023-05-22T15:58:28.533Z,100597.97
2023-05-22T16:00:56.283Z,100609.56
2023-05-22T16:03:24.046Z,100613.81
2023-05-22T16:05:51.848Z,100622.16
2023-05-22T16:08:19.552Z,100634.25
2023-05-22T16:10:48.508Z,100638.53
2023-05-22T16:13:16.439Z,100631.34
2023-05-22T16:15:44.736Z,100629.31
2023-05-22T16:18:12.843Z,100634.06
2023-05-22T16:20:40.584Z,100635.44
2023-05-22T16:23:08.278Z,100627.13
2023-05-22T16:25:35.902Z,100637.94
2023-05-22T16:28:05.699Z,100641.25
2023-05-22T16:30:33.333Z,100633.56
2023-05-22T16:33:01.078Z,100620.75
2023-05-22T16:35:29.443Z,100617.41
2023-05-22T16:37:57.046Z,100624.91
2023-05-22T16:40:24.668Z,100632.84
2023-05-22T16:42:52.447Z,100631.53
2023-05-22T16:45:23.192Z,100644.63
2023-05-22T16:47:50.991Z,100640.16
2023-05-22T16:50:19.380Z,100645.91
2023-05-22T16:52:47.044Z,100653.34
2023-05-22T16:55:14.776Z,100650.94
2023-05-22T16:57:43.181Z,100661.84
2023-05-22T17:00:11.820Z,100670.91
2023-05-22T17:02:41.330Z,100678.50
2023-05-22T17:05:09.337Z,100682.72
2023-05-22T17:07:37.010Z,100704.66
2023-05-22T17:10:06.226Z,100693.25
2023-05-22T17:12:33.881Z,100680.13
2023-05-22T17:15:01.588Z,100673.06
2023-05-22T17:17:29.202Z,100684.53
2023-05-22T17:19:58.478Z,100679.97
2023-05-22T17:22:26.250Z,100687.69
2023-05-22T17:24:54.024Z,100674.38
2023-05-22T17:27:35.584Z,100676.47
2023-05-22T17:30:06.061Z,100695.84
2023-05-22T17:32:33.981Z,100702.75
2023-05-22T17:35:04.844Z,100706.91
2023-05-22T17:37:32.565Z,100712.72
2023-05-22T17:40:00.268Z,100718.31
2023-05-22T17:42:28.062Z,100729.75
2023-05-22T17:44:55.670Z,100735.97
2023-05-22T17:47:23.331Z,100744.31
2023-05-22T17:49:51.006Z,100740.97
2023-05-22T17:52:20.180Z,100747.22
2023-05-22T17:54:49.772Z,100750.91
2023-05-22T17:57:17.426Z,100749.03
2023-05-22T17:59:45.296Z,100753.22
2023-05-22T18:02:13.016Z,100755.69
2023-05-22T18:04:40.654Z,100759.41
2023-05-22T18:07:08.386Z,100756.06
2023-05-22T18:09:38.016Z,100753.94
2023-05-22T18:12:06.080Z,100757.91
2023-05-22T18:14:33.686Z,100762.47
2023-05-22T18:17:01.281Z,100752.88
2023-05-22T18:19:29.023Z,100765.78
2023-05-22T18:21:56.712Z,100757.03
2023-05-22T18:24:25.284Z,100764.31
2023-05-22T18:26:54.769Z,100771.78
2023-05-22T18:29:22.431Z,100769.06
2023-05-22T18:31:50.093Z,100777.81
2023-05-22T18:34:17.719Z,100774.91
2023-05-22T18:36:45.881Z,100776.13
2023-05-22T18:39:14.767Z,100772.59
2023-05-22T18:41:42.370Z,100780.53
2023-05-22T18:44:11.722Z,100776.34
2023-05-22T18:46:39.393Z,100795.28
2023-05-22T18:49:07.082Z,100803.22
2023-05-22T18:51:35.714Z,100810.28
2023-05-22T18:54:03.333Z,100812.09
2023-05-22T18:56:32.335Z,100815.66
2023-05-22T18:58:59.939Z,100814.78
2023-05-22T19:01:28.910Z,100820.63
2023-05-22T19:03:56.630Z,100835.16
2023-05-22T19:06:25.849Z,100842.78
2023-05-22T19:08:53.482Z,100845.91
2023-05-22T19:11:21.236Z,100853.34
2023-05-22T19:13:48.869Z,100852.09
2023-05-22T19:16:16.614Z,100853.50
2023-05-22T19:18:45.680Z,100856.59
2023-05-22T19:21:14.677Z,100849.09
2023-05-22T19:23:42.696Z,100855.94
2023-05-22T19:26:10.469Z,100852.75
2023-05-22T19:28:38.102Z,100855.66
2023-05-22T19:31:05.949Z,100852.56
2023-05-22T19:33:33.690Z,100858.31
2023-05-22T19:36:02.927Z,100849.75
2023-05-22T19:38:31.045Z,100864.50
2023-05-22T19:40:58.801Z,100863.22
2023-05-22T19:43:26.676Z,100863.81
2023-05-22T19:45:55.445Z,100864.41
2023-05-22T19:48:23.134Z,100872.03
2023-05-22T19:50:51.014Z,100871.78
2023-05-22T19:53:20.291Z,100870.53
2023-05-22T19:55:47.884Z,100863.81
2023-05-22T19:58:15.572Z,100870.63
2023-05-22T20:00:43.407Z,100870.19
2023-05-22T20:03:11.691Z,100871.41
2023-05-22T20:05:39.675Z,100870.28
2023-05-22T20:08:07.462Z,100881.25
2023-05-22T20:10:36.527Z,100873.72
2023-05-22T20:13:04.725Z,100876.38
2023-05-22T20:15:32.898Z,100876.28
2023-05-22T20:18:02.526Z,100884.13
2023-05-22T20:20:30.367Z,100882.19
2023-05-22T20:22:59.010Z,100887.31
2023-05-22T20:25:26.642Z,100887.03
2023-05-22T20:27:55.641Z,100889.47
2023-05-22T20:30:23.268Z,100889.38
2023-05-22T20:32:51.798Z,100892.81
2023-05-22T20:35:20.080Z,100890.03
2023-05-22T20:37:47.996Z,100888.91
2023-05-22T20:40:16.022Z,100892.19
2023-05-22T20:42:44.586Z,100902.84
2023-05-22T20:45:15.287Z,100907.28
2023-05-22T20:47:44.177Z,100900.97
2023-05-22T20:50:12.272Z,100898.19
2023-05-22T20:52:40.634Z,100892.69
2023-05-22T20:55:08.968Z,100890.75
2023-05-22T20:57:36.666Z,100898.88
2023-05-22T21:00:05.838Z,100905.19
2023-05-22T21:02:34.830Z,100900.53
2023-05-22T21:05:02.514Z,100905.16
2023-05-22T21:07:30.215Z,100903.19
2023-05-22T21:09:57.924Z,100902.91
2023-05-22T21:12:25.541Z,100899.91
2023-05-22T21:14:53.269Z,100897.09
2023-05-22T21:17:21.004Z,100908.22
2023-05-22T21:19:50.062Z,100914.31
2023-05-22T21:22:17.761Z,100921.41
2023-05-22T21:24:45.381Z,100919.59
2023-05-22T21:27:12.972Z,100925.69
2023-05-22T21:29:40.560Z,100920.53
2023-05-22T21:32:08.713Z,100919.19
2023-05-22T21:34:36.618Z,100918.22
2023-05-22T21:37:06.128Z,100918.59
2023-05-22T21:39:33.711Z,100922.81
2023-05-22T21:42:01.416Z,100926.50
2023-05-22T21:44:29.049Z,100929.38
2023-05-22T21:46:56.778Z,100926.69
2023-05-22T21:49:24.381Z,100925.38
2023-05-22T21:51:51.978Z,100925.06
2023-05-22T21:54:20.982Z,100931.78
2023-05-22T21:56:48.647Z,100919.88
2023-05-22T21:59:16.383Z,100920.75
2023-05-22T22:01:44.315Z,100922.59
2023-05-22T22:04:12.138Z,100925.28
2023-05-22T22:06:39.758Z,100932.03
2023-05-22T22:09:07.352Z,100929.84
2023-05-22T22:11:36.287Z,100918.63
2023-05-22T22:14:04.802Z,100924.84
2023-05-22T22:16:35.392Z,100924.97
2023-05-22T22:19:03.271Z,100922.66
2023-05-22T22:21:31.550Z,100917.78
2023-05-22T22:23:59.168Z,100916.94
2023-05-22T22:26:27.028Z,100919.31
2023-05-22T22:28:55.987Z,100919.47
2023-05-22T22:31:23.651Z,100919.47
2023-05-22T22:33:51.295Z,100925.84
2023-05-22T22:36:19.162Z,100923.16
2023-05-22T22:38:47.075Z,100926.88
2023-05-22T22:41:14.673Z,100920.66
2023-05-22T22:43:42.337Z,100927.03
2023-05-22T22:46:11.438Z,100933.59
2023-05-22T22:48:41.581Z,100933.75
2023-05-22T22:51:09.380Z,100941.16
2023-05-22T22:53:38.288Z,100942.16
2023-05-22T22:56:06.120Z,100939.66
2023-05-22T22:58:33.732Z,100942.69
2023-05-22T23:01:01.528Z,100943.84
2023-05-22T23:03:30.519Z,100947.91
2023-05-22T23:05:58.552Z,100951.75
2023-05-22T23:08:26.152Z,100947.88
2023-05-22T23:10:53.732Z,100954.25
2023-05-22T23:13:21.406Z,100954.56
2023-05-22T23:15:49.916Z,100954.09
2023-05-22T23:18:17.642Z,100951.59
2023-05-22T23:20:46.987Z,100942.66
2023-05-22T23:23:15.352Z,100939.13
2023-05-22T23:25:43.077Z,100944.88
2023-05-22T23:28:10.750Z,100936.16
2023-05-22T23:30:39.055Z,100936.47
2023-05-22T23:33:07.564Z,100935.81
2023-05-22T23:35:35.364Z,100934.28
2023-05-22T23:38:04.268Z,100939.16
2023-05-22T23:40:31.883Z,100933.78
2023-05-22T23:42:59.442Z,100931.59
2023-05-22T23:45:27.203Z,100930.59
2023-05-22T23:47:54.775Z,100930.06
2023-05-22T23:50:22.372Z,100931.25
2023-05-22T23:52:50.609Z,100926.22
2023-05-22T23:55:19.686Z,100931.91
2023-05-22T23:57:47.375Z,100925.50
